Terminal Aerodrome Forecast
Issued by NWS

Home | Current Version | Previous Version | Text Only | Print | Product List | Glossary On
Versions: 1 2 3 4 5 6 7 8 9 10 11 12 13 14 15 16 17 18 19 20 21 22 23 24 25 26 27 28 29
692
FTUS41 KCAR 262332
TAFBHB
TAF
KBHB 262332Z 2700/2724 19007KT P6SM SCT150 OVC200
     FM270800 11005KT P6SM SCT020 BKN100
     FM271000 12005KT P6SM OVC006
     FM271200 10006KT 2SM -DZ OVC004
     FM271400 15008KT 2SM -SHRA BR OVC004
     FM271800 17010KT P6SM SCT018 BKN025=

USA.gov is the U.S. government's official web portal to all federal, state and local government web resources and services.